sensor_id;sensor_type;location;lat;lon;timestamp;temperature;humidity
8684;DHT22;4379;59.744;18.206;2023-03-15T00:02:00;-1.90;99.90
8684;DHT22;4379;59.744;18.206;2023-03-15T00:04:28;-2.00;99.90
8684;DHT22;4379;59.744;18.206;2023-03-15T00:06:55;-2.00;99.90
8684;DHT22;4379;59.744;18.206;2023-03-15T00:09:23;-2.00;99.90
8684;DHT22;4379;59.744;18.206;2023-03-15T00:11:51;-2.10;99.90
8684;DHT22;4379;59.744;18.206;2023-03-15T00:14:20;-2.10;99.90
8684;DHT22;4379;59.744;18.206;2023-03-15T00:16:48;-2.10;99.90
8684;DHT22;4379;59.744;18.206;2023-03-15T00:19:15;-2.10;99.90
8684;DHT22;4379;59.744;18.206;2023-03-15T00:21:42;-2.10;99.90
8684;DHT22;4379;59.744;18.206;2023-03-15T00:24:10;-2.10;99.90
8684;DHT22;4379;59.744;18.206;2023-03-15T00:26:37;-2.10;99.90
8684;DHT22;4379;59.744;18.206;2023-03-15T00:29:05;-2.30;99.90
8684;DHT22;4379;59.744;18.206;2023-03-15T00:31:32;-2.20;99.90
8684;DHT22;4379;59.744;18.206;2023-03-15T00:34:00;-2.30;99.90
8684;DHT22;4379;59.744;18.206;2023-03-15T00:36:27;-2.40;99.90
8684;DHT22;4379;59.744;18.206;2023-03-15T00:38:55;-2.40;99.90
8684;DHT22;4379;59.744;18.206;2023-03-15T00:41:23;-2.50;99.90
8684;DHT22;4379;59.744;18.206;2023-03-15T00:43:50;-2.50;99.90
8684;DHT22;4379;59.744;18.206;2023-03-15T00:46:18;-2.50;99.90
8684;DHT22;4379;59.744;18.206;2023-03-15T00:48:48;-2.50;99.90
8684;DHT22;4379;59.744;18.206;2023-03-15T00:51:19;-2.50;99.90
8684;DHT22;4379;59.744;18.206;2023-03-15T00:53:49;-2.50;99.90
8684;DHT22;4379;59.744;18.206;2023-03-15T00:56:22;-2.60;99.90
8684;DHT22;4379;59.744;18.206;2023-03-15T00:58:51;-2.60;99.90
8684;DHT22;4379;59.744;18.206;2023-03-15T01:01:22;-2.70;99.90
8684;DHT22;4379;59.744;18.206;2023-03-15T01:03:50;-2.70;99.90
8684;DHT22;4379;59.744;18.206;2023-03-15T01:06:26;-2.70;99.90
8684;DHT22;4379;59.744;18.206;2023-03-15T01:08:54;-2.80;99.90
8684;DHT22;4379;59.744;18.206;2023-03-15T01:11:25;-2.80;99.90
8684;DHT22;4379;59.744;18.206;2023-03-15T01:13:54;-2.80;99.90
8684;DHT22;4379;59.744;18.206;2023-03-15T01:16:22;-2.80;99.90
8684;DHT22;4379;59.744;18.206;2023-03-15T01:18:49;-2.80;99.90
8684;DHT22;4379;59.744;18.206;2023-03-15T01:21:17;-2.90;99.90
8684;DHT22;4379;59.744;18.206;2023-03-15T01:23:45;-2.90;99.90
8684;DHT22;4379;59.744;18.206;2023-03-15T01:26:14;-2.90;99.90
8684;DHT22;4379;59.744;18.206;2023-03-15T01:28:42;-3.00;99.90
8684;DHT22;4379;59.744;18.206;2023-03-15T01:31:24;-3.10;99.90
8684;DHT22;4379;59.744;18.206;2023-03-15T01:33:52;-3.20;99.90
8684;DHT22;4379;59.744;18.206;2023-03-15T01:36:20;-3.20;99.90
8684;DHT22;4379;59.744;18.206;2023-03-15T01:38:47;-3.20;99.90
8684;DHT22;4379;59.744;18.206;2023-03-15T01:41:18;-3.10;99.90
8684;DHT22;4379;59.744;18.206;2023-03-15T01:43:46;-3.20;99.90
8684;DHT22;4379;59.744;18.206;2023-03-15T01:46:26;-3.30;99.90
8684;DHT22;4379;59.744;18.206;2023-03-15T01:54:35;-3.30;99.90
8684;DHT22;4379;59.744;18.206;2023-03-15T01:57:12;-3.20;99.90
8684;DHT22;4379;59.744;18.206;2023-03-15T02:00:06;-3.20;99.90
8684;DHT22;4379;59.744;18.206;2023-03-15T02:02:42;-3.40;99.90
8684;DHT22;4379;59.744;18.206;2023-03-15T02:05:17;-3.40;99.90
8684;DHT22;4379;59.744;18.206;2023-03-15T02:07:47;-3.50;99.90
8684;DHT22;4379;59.744;18.206;2023-03-15T02:10:22;-3.50;99.90
8684;DHT22;4379;59.744;18.206;2023-03-15T02:12:53;-3.50;99.90
8684;DHT22;4379;59.744;18.206;2023-03-15T02:15:21;-3.50;99.90
8684;DHT22;4379;59.744;18.206;2023-03-15T02:17:49;-3.60;99.90
8684;DHT22;4379;59.744;18.206;2023-03-15T02:20:28;-3.50;99.90
8684;DHT22;4379;59.744;18.206;2023-03-15T02:23:04;-3.60;99.90
8684;DHT22;4379;59.744;18.206;2023-03-15T02:26:16;-3.60;99.90
8684;DHT22;4379;59.744;18.206;2023-03-15T02:28:48;-3.70;99.90
8684;DHT22;4379;59.744;18.206;2023-03-15T02:31:16;-3.80;99.90
8684;DHT22;4379;59.744;18.206;2023-03-15T02:33:49;-3.80;99.90
8684;DHT22;4379;59.744;18.206;2023-03-15T02:36:25;-3.80;99.90
8684;DHT22;4379;59.744;18.206;2023-03-15T02:38:53;-3.80;99.90
8684;DHT22;4379;59.744;18.206;2023-03-15T02:41:25;-3.90;99.90
8684;DHT22;4379;59.744;18.206;2023-03-15T02:44:01;-3.90;99.90
8684;DHT22;4379;59.744;18.206;2023-03-15T02:46:29;-3.90;99.90
8684;DHT22;4379;59.744;18.206;2023-03-15T02:48:56;-3.90;99.90
8684;DHT22;4379;59.744;18.206;2023-03-15T02:51:27;-3.90;99.90
8684;DHT22;4379;59.744;18.206;2023-03-15T02:53:55;-3.90;99.90
8684;DHT22;4379;59.744;18.206;2023-03-15T02:56:22;-4.00;99.90
8684;DHT22;4379;59.744;18.206;2023-03-15T02:58:50;-4.00;99.90
8684;DHT22;4379;59.744;18.206;2023-03-15T03:01:18;-3.90;99.90
8684;DHT22;4379;59.744;18.206;2023-03-15T03:03:46;-4.00;99.90
8684;DHT22;4379;59.744;18.206;2023-03-15T03:06:15;-4.00;99.90
8684;DHT22;4379;59.744;18.206;2023-03-15T03:08:43;-4.10;99.90
8684;DHT22;4379;59.744;18.206;2023-03-15T03:11:14;-4.20;99.90
8684;DHT22;4379;59.744;18.206;2023-03-15T03:13:42;-4.20;99.90
8684;DHT22;4379;59.744;18.206;2023-03-15T03:16:10;-4.10;99.90
8684;DHT22;4379;59.744;18.206;2023-03-15T03:18:39;-4.00;99.90
8684;DHT22;4379;59.744;18.206;2023-03-15T03:21:08;-4.10;99.90
8684;DHT22;4379;59.744;18.206;2023-03-15T03:23:36;-4.00;99.90
8684;DHT22;4379;59.744;18.206;2023-03-15T03:26:11;-4.00;99.90
8684;DHT22;4379;59.744;18.206;2023-03-15T03:28:44;-4.10;99.90
8684;DHT22;4379;59.744;18.206;2023-03-15T03:31:20;-4.30;99.90
8684;DHT22;4379;59.744;18.206;2023-03-15T03:33:48;-4.40;99.90
8684;DHT22;4379;59.744;18.206;2023-03-15T03:36:15;-4.40;99.90
8684;DHT22;4379;59.744;18.206;2023-03-15T03:38:44;-4.40;99.90
8684;DHT22;4379;59.744;18.206;2023-03-15T03:41:13;-4.40;99.90
8684;DHT22;4379;59.744;18.206;2023-03-15T03:43:40;-4.50;99.90
8684;DHT22;4379;59.744;18.206;2023-03-15T03:46:08;-4.50;99.90
8684;DHT22;4379;59.744;18.206;2023-03-15T03:48:35;-4.40;99.90
8684;DHT22;4379;59.744;18.206;2023-03-15T03:51:02;-4.50;99.90
8684;DHT22;4379;59.744;18.206;2023-03-15T03:53:30;-4.50;99.90
8684;DHT22;4379;59.744;18.206;2023-03-15T03:55:57;-4.50;99.90
8684;DHT22;4379;59.744;18.206;2023-03-15T03:58:24;-4.50;99.90
8684;DHT22;4379;59.744;18.206;2023-03-15T04:00:51;-4.50;99.90
8684;DHT22;4379;59.744;18.206;2023-03-15T04:03:21;-4.60;99.90
8684;DHT22;4379;59.744;18.206;2023-03-15T04:05:54;-4.50;99.90
8684;DHT22;4379;59.744;18.206;2023-03-15T04:08:23;-4.40;99.90
8684;DHT22;4379;59.744;18.206;2023-03-15T04:10:52;-4.40;99.90
8684;DHT22;4379;59.744;18.206;2023-03-15T04:13:21;-4.40;99.90
8684;DHT22;4379;59.744;18.206;2023-03-15T04:15:49;-4.50;99.90
8684;DHT22;4379;59.744;18.206;2023-03-15T04:18:18;-4.40;99.90
8684;DHT22;4379;59.744;18.206;2023-03-15T04:20:46;-4.60;99.90
8684;DHT22;4379;59.744;18.206;2023-03-15T04:23:16;-4.60;99.90
8684;DHT22;4379;59.744;18.206;2023-03-15T04:25:51;-4.60;99.90
8684;DHT22;4379;59.744;18.206;2023-03-15T04:28:18;-4.60;99.90
8684;DHT22;4379;59.744;18.206;2023-03-15T04:30:47;-4.60;99.90
8684;DHT22;4379;59.744;18.206;2023-03-15T04:33:15;-4.50;99.90
8684;DHT22;4379;59.744;18.206;2023-03-15T04:35:42;-4.70;99.90
8684;DHT22;4379;59.744;18.206;2023-03-15T04:38:09;-4.70;99.90
8684;DHT22;4379;59.744;18.206;2023-03-15T04:40:37;-4.60;99.90
8684;DHT22;4379;59.744;18.206;2023-03-15T04:43:04;-4.50;99.90
8684;DHT22;4379;59.744;18.206;2023-03-15T04:45:32;-4.70;99.90
8684;DHT22;4379;59.744;18.206;2023-03-15T04:48:00;-4.70;99.90
8684;DHT22;4379;59.744;18.206;2023-03-15T04:50:29;-4.70;99.90
8684;DHT22;4379;59.744;18.206;2023-03-15T04:52:57;-4.70;99.90
8684;DHT22;4379;59.744;18.206;2023-03-15T04:55:25;-4.80;99.90
8684;DHT22;4379;59.744;18.206;2023-03-15T04:57:53;-4.90;99.90
8684;DHT22;4379;59.744;18.206;2023-03-15T05:00:21;-4.90;99.90
8684;DHT22;4379;59.744;18.206;2023-03-15T05:02:49;-4.90;99.90
8684;DHT22;4379;59.744;18.206;2023-03-15T05:05:22;-4.90;99.90
8684;DHT22;4379;59.744;18.206;2023-03-15T05:07:52;-4.80;99.90
8684;DHT22;4379;59.744;18.206;2023-03-15T05:10:20;-4.70;99.90
8684;DHT22;4379;59.744;18.206;2023-03-15T05:12:47;-4.70;99.90
8684;DHT22;4379;59.744;18.206;2023-03-15T05:15:15;-4.60;99.90
8684;DHT22;4379;59.744;18.206;2023-03-15T05:17:42;-4.60;99.90
8684;DHT22;4379;59.744;18.206;2023-03-15T05:20:13;-4.70;99.90
8684;DHT22;4379;59.744;18.206;2023-03-15T05:22:41;-4.80;99.90
8684;DHT22;4379;59.744;18.206;2023-03-15T05:25:09;-4.80;99.90
8684;DHT22;4379;59.744;18.206;2023-03-15T05:27:37;-4.80;99.90
8684;DHT22;4379;59.744;18.206;2023-03-15T05:30:06;-4.90;99.90
8684;DHT22;4379;59.744;18.206;2023-03-15T05:32:33;-4.90;99.90
8684;DHT22;4379;59.744;18.206;2023-03-15T05:35:01;-4.70;99.90
8684;DHT22;4379;59.744;18.206;2023-03-15T05:37:28;-4.70;99.90
8684;DHT22;4379;59.744;18.206;2023-03-15T05:39:56;-4.70;99.90
8684;DHT22;4379;59.744;18.206;2023-03-15T05:42:24;-4.50;99.90
8684;DHT22;4379;59.744;18.206;2023-03-15T05:44:55;-4.50;99.90
8684;DHT22;4379;59.744;18.206;2023-03-15T05:47:23;-4.40;99.90
8684;DHT22;4379;59.744;18.206;2023-03-15T05:49:50;-4.50;99.90
8684;DHT22;4379;59.744;18.206;2023-03-15T05:52:19;-4.50;99.90
8684;DHT22;4379;59.744;18.206;2023-03-15T05:54:47;-4.50;99.90
8684;DHT22;4379;59.744;18.206;2023-03-15T05:57:15;-4.60;99.90
8684;DHT22;4379;59.744;18.206;2023-03-15T05:59:42;-4.60;99.90
8684;DHT22;4379;59.744;18.206;2023-03-15T06:02:10;-4.50;99.90
8684;DHT22;4379;59.744;18.206;2023-03-15T06:04:37;-4.50;99.90
8684;DHT22;4379;59.744;18.206;2023-03-15T06:07:05;-4.60;99.90
8684;DHT22;4379;59.744;18.206;2023-03-15T06:09:32;-4.40;99.90
8684;DHT22;4379;59.744;18.206;2023-03-15T06:12:00;-4.40;99.90
8684;DHT22;4379;59.744;18.206;2023-03-15T06:14:27;-4.20;99.90
8684;DHT22;4379;59.744;18.206;2023-03-15T06:16:54;-4.20;99.90
8684;DHT22;4379;59.744;18.206;2023-03-15T06:19:22;-4.10;99.90
8684;DHT22;4379;59.744;18.206;2023-03-15T06:21:50;-4.00;99.90
8684;DHT22;4379;59.744;18.206;2023-03-15T06:24:17;-3.90;99.90
8684;DHT22;4379;59.744;18.206;2023-03-15T06:26:45;-3.90;99.90
8684;DHT22;4379;59.744;18.206;2023-03-15T06:29:12;-3.80;99.90
8684;DHT22;4379;59.744;18.206;2023-03-15T06:31:40;-3.80;99.90
8684;DHT22;4379;59.744;18.206;2023-03-15T06:34:07;-3.70;99.90
8684;DHT22;4379;59.744;18.206;2023-03-15T06:36:34;-3.70;99.90
8684;DHT22;4379;59.744;18.206;2023-03-15T06:39:02;-3.50;99.90
8684;DHT22;4379;59.744;18.206;2023-03-15T06:41:31;-3.50;99.90
8684;DHT22;4379;59.744;18.206;2023-03-15T06:43:58;-3.40;99.90
8684;DHT22;4379;59.744;18.206;2023-03-15T06:46:26;-3.40;99.90
8684;DHT22;4379;59.744;18.206;2023-03-15T06:48:53;-3.30;99.90
8684;DHT22;4379;59.744;18.206;2023-03-15T06:51:21;-3.20;99.90
8684;DHT22;4379;59.744;18.206;2023-03-15T06:53:51;-3.10;99.90
8684;DHT22;4379;59.744;18.206;2023-03-15T06:56:19;-3.00;99.90
8684;DHT22;4379;59.744;18.206;2023-03-15T06:58:46;-3.00;99.90
8684;DHT22;4379;59.744;18.206;2023-03-15T07:01:15;-2.90;99.90
8684;DHT22;4379;59.744;18.206;2023-03-15T07:03:42;-2.80;99.90
8684;DHT22;4379;59.744;18.206;2023-03-15T07:06:10;-2.80;99.90
8684;DHT22;4379;59.744;18.206;2023-03-15T07:08:37;-2.70;99.90
8684;DHT22;4379;59.744;18.206;2023-03-15T07:11:04;-2.60;99.90
8684;DHT22;4379;59.744;18.206;2023-03-15T07:13:32;-2.50;99.90
8684;DHT22;4379;59.744;18.206;2023-03-15T07:15:59;-2.50;99.90
8684;DHT22;4379;59.744;18.206;2023-03-15T07:18:26;-2.40;99.90
8684;DHT22;4379;59.744;18.206;2023-03-15T07:20:57;-2.20;99.90
8684;DHT22;4379;59.744;18.206;2023-03-15T07:23:25;-2.10;99.90
8684;DHT22;4379;59.744;18.206;2023-03-15T07:25:53;-2.10;99.90
8684;DHT22;4379;59.744;18.206;2023-03-15T07:28:23;-1.80;99.90
8684;DHT22;4379;59.744;18.206;2023-03-15T07:30:58;-1.60;99.90
8684;DHT22;4379;59.744;18.206;2023-03-15T07:33:27;-1.20;99.90
8684;DHT22;4379;59.744;18.206;2023-03-15T07:35:55;-0.90;99.90
8684;DHT22;4379;59.744;18.206;2023-03-15T07:38:25;-0.50;99.90
8684;DHT22;4379;59.744;18.206;2023-03-15T07:40:53;-0.70;99.90
8684;DHT22;4379;59.744;18.206;2023-03-15T07:43:21;-0.60;99.90
8684;DHT22;4379;59.744;18.206;2023-03-15T07:45:48;-0.50;99.90
8684;DHT22;4379;59.744;18.206;2023-03-15T07:48:16;-0.40;99.90
8684;DHT22;4379;59.744;18.206;2023-03-15T07:50:44;-0.70;99.90
8684;DHT22;4379;59.744;18.206;2023-03-15T07:53:12;-0.70;99.90
8684;DHT22;4379;59.744;18.206;2023-03-15T07:55:39;-0.60;99.90
8684;DHT22;4379;59.744;18.206;2023-03-15T07:58:06;-0.60;99.90
8684;DHT22;4379;59.744;18.206;2023-03-15T08:00:33;-0.30;99.90
8684;DHT22;4379;59.744;18.206;2023-03-15T08:03:00;0.10;99.90
8684;DHT22;4379;59.744;18.206;2023-03-15T08:05:28;0.40;99.90
8684;DHT22;4379;59.744;18.206;2023-03-15T08:07:56;0.50;99.90
8684;DHT22;4379;59.744;18.206;2023-03-15T08:10:23;0.80;99.90
8684;DHT22;4379;59.744;18.206;2023-03-15T08:12:50;0.90;99.90
8684;DHT22;4379;59.744;18.206;2023-03-15T08:15:19;0.60;99.90
8684;DHT22;4379;59.744;18.206;2023-03-15T08:17:47;0.90;99.90
8684;DHT22;4379;59.744;18.206;2023-03-15T08:20:16;0.90;99.90
8684;DHT22;4379;59.744;18.206;2023-03-15T08:22:47;1.00;99.90
8684;DHT22;4379;59.744;18.206;2023-03-15T08:25:18;0.70;99.90
8684;DHT22;4379;59.744;18.206;2023-03-15T08:27:46;0.60;99.90
8684;DHT22;4379;59.744;18.206;2023-03-15T08:30:14;0.80;99.90
8684;DHT22;4379;59.744;18.206;2023-03-15T08:32:44;0.60;99.90
8684;DHT22;4379;59.744;18.206;2023-03-15T08:35:12;0.60;99.90
8684;DHT22;4379;59.744;18.206;2023-03-15T08:37:41;0.60;99.90
8684;DHT22;4379;59.744;18.206;2023-03-15T08:40:17;0.40;99.90
8684;DHT22;4379;59.744;18.206;2023-03-15T08:42:50;0.80;99.90
8684;DHT22;4379;59.744;18.206;2023-03-15T08:45:19;1.20;99.90
8684;DHT22;4379;59.744;18.206;2023-03-15T08:47:46;1.30;99.90
8684;DHT22;4379;59.744;18.206;2023-03-15T08:50:15;1.40;99.90
8684;DHT22;4379;59.744;18.206;2023-03-15T08:52:42;1.30;99.90
8684;DHT22;4379;59.744;18.206;2023-03-15T08:55:10;1.10;99.90
8684;DHT22;4379;59.744;18.206;2023-03-15T08:57:40;0.80;99.90
8684;DHT22;4379;59.744;18.206;2023-03-15T09:00:10;1.40;99.90
8684;DHT22;4379;59.744;18.206;2023-03-15T09:02:47;1.30;99.90
8684;DHT22;4379;59.744;18.206;2023-03-15T09:05:15;2.40;99.90
8684;DHT22;4379;59.744;18.206;2023-03-15T09:07:43;3.40;99.90
8684;DHT22;4379;59.744;18.206;2023-03-15T09:10:13;3.50;99.90
8684;DHT22;4379;59.744;18.206;2023-03-15T09:12:46;3.30;99.90
8684;DHT22;4379;59.744;18.206;2023-03-15T09:15:14;2.60;99.90
8684;DHT22;4379;59.744;18.206;2023-03-15T09:17:42;2.40;99.90
8684;DHT22;4379;59.744;18.206;2023-03-15T09:20:11;2.80;99.90
8684;DHT22;4379;59.744;18.206;2023-03-15T09:22:43;3.40;99.90
8684;DHT22;4379;59.744;18.206;2023-03-15T09:25:15;5.70;99.90
8684;DHT22;4379;59.744;18.206;2023-03-15T09:27:42;5.30;99.90
8684;DHT22;4379;59.744;18.206;2023-03-15T09:30:10;5.40;99.90
8684;DHT22;4379;59.744;18.206;2023-03-15T09:32:37;4.00;99.90
8684;DHT22;4379;59.744;18.206;2023-03-15T09:35:07;4.20;99.90
8684;DHT22;4379;59.744;18.206;2023-03-15T09:37:34;4.00;99.90
8684;DHT22;4379;59.744;18.206;2023-03-15T09:40:02;3.20;99.90
8684;DHT22;4379;59.744;18.206;2023-03-15T09:48:05;2.40;99.90
8684;DHT22;4379;59.744;18.206;2023-03-15T09:50:56;2.20;99.90
8684;DHT22;4379;59.744;18.206;2023-03-15T09:53:40;2.10;99.90
8684;DHT22;4379;59.744;18.206;2023-03-15T09:56:33;2.20;99.90
8684;DHT22;4379;59.744;18.206;2023-03-15T09:59:03;2.40;99.90
8684;DHT22;4379;59.744;18.206;2023-03-15T10:01:35;2.60;99.90
8684;DHT22;4379;59.744;18.206;2023-03-15T10:06:46;2.90;99.90
8684;DHT22;4379;59.744;18.206;2023-03-15T10:09:22;3.00;99.90
8684;DHT22;4379;59.744;18.206;2023-03-15T10:12:02;2.90;99.90
8684;DHT22;4379;59.744;18.206;2023-03-15T10:17:46;3.20;99.90
8684;DHT22;4379;59.744;18.206;2023-03-15T10:20:20;3.30;99.90
8684;DHT22;4379;59.744;18.206;2023-03-15T10:22:57;3.10;99.90
8684;DHT22;4379;59.744;18.206;2023-03-15T10:25:30;3.00;99.90
8684;DHT22;4379;59.744;18.206;2023-03-15T10:28:02;2.80;99.90
8684;DHT22;4379;59.744;18.206;2023-03-15T10:30:33;2.70;99.90
8684;DHT22;4379;59.744;18.206;2023-03-15T10:35:35;2.80;99.90
8684;DHT22;4379;59.744;18.206;2023-03-15T10:38:13;2.80;99.90
8684;DHT22;4379;59.744;18.206;2023-03-15T10:40:44;2.90;99.90
8684;DHT22;4379;59.744;18.206;2023-03-15T10:45:46;2.50;99.90
8684;DHT22;4379;59.744;18.206;2023-03-15T10:48:16;2.60;99.90
8684;DHT22;4379;59.744;18.206;2023-03-15T10:50:44;2.50;99.90
8684;DHT22;4379;59.744;18.206;2023-03-15T10:53:17;2.60;99.90
8684;DHT22;4379;59.744;18.206;2023-03-15T10:55:47;2.50;99.90
8684;DHT22;4379;59.744;18.206;2023-03-15T10:58:27;2.40;99.90
8684;DHT22;4379;59.744;18.206;2023-03-15T11:01:12;2.60;99.90
8684;DHT22;4379;59.744;18.206;2023-03-15T11:06:27;2.40;99.90
8684;DHT22;4379;59.744;18.206;2023-03-15T11:09:11;2.50;99.90
8684;DHT22;4379;59.744;18.206;2023-03-15T11:12:01;2.50;99.90
8684;DHT22;4379;59.744;18.206;2023-03-15T11:14:38;2.60;99.90
8684;DHT22;4379;59.744;18.206;2023-03-15T11:17:14;2.70;99.90
8684;DHT22;4379;59.744;18.206;2023-03-15T11:19:47;2.70;99.90
8684;DHT22;4379;59.744;18.206;2023-03-15T11:22:17;2.90;99.90
8684;DHT22;4379;59.744;18.206;2023-03-15T11:24:45;2.90;99.90
8684;DHT22;4379;59.744;18.206;2023-03-15T11:27:15;3.10;99.90
8684;DHT22;4379;59.744;18.206;2023-03-15T11:29:50;3.30;99.90
8684;DHT22;4379;59.744;18.206;2023-03-15T11:32:21;3.40;99.90
8684;DHT22;4379;59.744;18.206;2023-03-15T11:35:27;3.20;99.90
8684;DHT22;4379;59.744;18.206;2023-03-15T11:37:57;3.40;99.90
8684;DHT22;4379;59.744;18.206;2023-03-15T11:40:43;3.30;99.90
8684;DHT22;4379;59.744;18.206;2023-03-15T11:43:33;3.20;99.90
8684;DHT22;4379;59.744;18.206;2023-03-15T11:46:09;3.20;99.90
8684;DHT22;4379;59.744;18.206;2023-03-15T11:49:00;3.20;99.90
8684;DHT22;4379;59.744;18.206;2023-03-15T11:51:34;3.50;99.90
8684;DHT22;4379;59.744;18.206;2023-03-15T11:54:15;3.60;99.90
8684;DHT22;4379;59.744;18.206;2023-03-15T12:01:49;3.60;99.90
8684;DHT22;4379;59.744;18.206;2023-03-15T12:04:28;3.50;99.90
8684;DHT22;4379;59.744;18.206;2023-03-15T12:07:22;3.40;99.90
8684;DHT22;4379;59.744;18.206;2023-03-15T12:17:59;3.10;99.90
8684;DHT22;4379;59.744;18.206;2023-03-15T12:20:40;3.10;99.90
8684;DHT22;4379;59.744;18.206;2023-03-15T12:25:58;3.00;99.90
8684;DHT22;4379;59.744;18.206;2023-03-15T12:28:39;2.90;99.90
8684;DHT22;4379;59.744;18.206;2023-03-15T12:31:09;2.80;99.90
8684;DHT22;4379;59.744;18.206;2023-03-15T12:33:54;3.00;99.90
8684;DHT22;4379;59.744;18.206;2023-03-15T12:36:41;3.20;99.90
8684;DHT22;4379;59.744;18.206;2023-03-15T12:41:49;3.10;99.90
8684;DHT22;4379;59.744;18.206;2023-03-15T12:44:42;3.10;99.90
8684;DHT22;4379;59.744;18.206;2023-03-15T12:47:11;2.90;99.90
8684;DHT22;4379;59.744;18.206;2023-03-15T12:49:43;3.00;99.90
8684;DHT22;4379;59.744;18.206;2023-03-15T12:52:12;3.20;99.90
8684;DHT22;4379;59.744;18.206;2023-03-15T12:54:57;3.10;99.90
8684;DHT22;4379;59.744;18.206;2023-03-15T12:57:35;3.30;99.90
8684;DHT22;4379;59.744;18.206;2023-03-15T13:00:17;3.30;99.90
8684;DHT22;4379;59.744;18.206;2023-03-15T13:03:06;3.20;99.90
8684;DHT22;4379;59.744;18.206;2023-03-15T13:17:30;3.50;99.90
8684;DHT22;4379;59.744;18.206;2023-03-15T13:20:25;3.50;99.90
8684;DHT22;4379;59.744;18.206;2023-03-15T13:23:21;3.70;99.90
8684;DHT22;4379;59.744;18.206;2023-03-15T13:28:41;3.80;99.90
8684;DHT22;4379;59.744;18.206;2023-03-15T13:31:22;4.00;99.90
8684;DHT22;4379;59.744;18.206;2023-03-15T13:33:55;3.80;99.90
8684;DHT22;4379;59.744;18.206;2023-03-15T13:36:45;3.90;99.90
8684;DHT22;4379;59.744;18.206;2023-03-15T13:39:22;3.80;99.90
8684;DHT22;4379;59.744;18.206;2023-03-15T13:42:03;3.70;99.90
8684;DHT22;4379;59.744;18.206;2023-03-15T13:44:32;3.50;99.90
8684;DHT22;4379;59.744;18.206;2023-03-15T13:47:00;3.50;99.90
8684;DHT22;4379;59.744;18.206;2023-03-15T13:49:32;3.60;99.90
8684;DHT22;4379;59.744;18.206;2023-03-15T13:52:03;3.80;99.90
8684;DHT22;4379;59.744;18.206;2023-03-15T13:54:38;3.90;99.90
8684;DHT22;4379;59.744;18.206;2023-03-15T13:57:13;4.00;99.90
8684;DHT22;4379;59.744;18.206;2023-03-15T14:00:03;3.70;99.90
8684;DHT22;4379;59.744;18.206;2023-03-15T14:03:03;3.40;99.90
8684;DHT22;4379;59.744;18.206;2023-03-15T14:05:34;3.40;99.90
8684;DHT22;4379;59.744;18.206;2023-03-15T14:08:25;3.50;99.90
8684;DHT22;4379;59.744;18.206;2023-03-15T14:13:30;3.80;99.90
8684;DHT22;4379;59.744;18.206;2023-03-15T14:16:02;3.80;99.90
8684;DHT22;4379;59.744;18.206;2023-03-15T14:18:35;3.80;99.90
8684;DHT22;4379;59.744;18.206;2023-03-15T14:23:42;4.00;99.90
8684;DHT22;4379;59.744;18.206;2023-03-15T14:26:22;4.10;99.90
8684;DHT22;4379;59.744;18.206;2023-03-15T14:29:03;4.10;99.90
8684;DHT22;4379;59.744;18.206;2023-03-15T14:31:36;4.10;99.90
8684;DHT22;4379;59.744;18.206;2023-03-15T14:34:31;4.30;99.90
8684;DHT22;4379;59.744;18.206;2023-03-15T14:36:55;4.00;99.90
8684;DHT22;4379;59.744;18.206;2023-03-15T14:39:38;3.70;99.90
8684;DHT22;4379;59.744;18.206;2023-03-15T14:42:09;3.60;99.90
8684;DHT22;4379;59.744;18.206;2023-03-15T14:44:37;3.30;99.90
8684;DHT22;4379;59.744;18.206;2023-03-15T14:47:14;3.20;99.90
8684;DHT22;4379;59.744;18.206;2023-03-15T14:49:42;3.10;99.90
8684;DHT22;4379;59.744;18.206;2023-03-15T14:52:12;3.20;99.90
8684;DHT22;4379;59.744;18.206;2023-03-15T14:54:45;3.20;99.90
8684;DHT22;4379;59.744;18.206;2023-03-15T14:57:14;3.20;99.90
8684;DHT22;4379;59.744;18.206;2023-03-15T14:59:41;3.10;99.90
8684;DHT22;4379;59.744;18.206;2023-03-15T15:02:21;2.90;99.90
8684;DHT22;4379;59.744;18.206;2023-03-15T15:04:49;2.90;99.90
8684;DHT22;4379;59.744;18.206;2023-03-15T15:07:16;2.80;99.90
8684;DHT22;4379;59.744;18.206;2023-03-15T15:09:48;2.80;99.90
8684;DHT22;4379;59.744;18.206;2023-03-15T15:12:16;2.90;99.90
8684;DHT22;4379;59.744;18.206;2023-03-15T15:14:45;2.90;99.90
8684;DHT22;4379;59.744;18.206;2023-03-15T15:17:13;3.00;99.90
8684;DHT22;4379;59.744;18.206;2023-03-15T15:19:43;3.00;99.90
8684;DHT22;4379;59.744;18.206;2023-03-15T15:22:14;2.90;99.90
8684;DHT22;4379;59.744;18.206;2023-03-15T15:24:43;2.90;99.90
8684;DHT22;4379;59.744;18.206;2023-03-15T15:27:12;2.90;99.90
8684;DHT22;4379;59.744;18.206;2023-03-15T15:29:41;2.80;99.90
8684;DHT22;4379;59.744;18.206;2023-03-15T15:32:08;2.80;99.90
8684;DHT22;4379;59.744;18.206;2023-03-15T15:34:39;2.80;99.90
8684;DHT22;4379;59.744;18.206;2023-03-15T15:37:12;2.80;99.90
8684;DHT22;4379;59.744;18.206;2023-03-15T15:39:39;2.70;99.90
8684;DHT22;4379;59.744;18.206;2023-03-15T15:42:09;2.60;99.90
8684;DHT22;4379;59.744;18.206;2023-03-15T15:44:36;2.50;99.90
8684;DHT22;4379;59.744;18.206;2023-03-15T15:47:04;2.40;99.90
8684;DHT22;4379;59.744;18.206;2023-03-15T15:49:31;2.50;99.90
8684;DHT22;4379;59.744;18.206;2023-03-15T15:51:58;2.40;99.90
8684;DHT22;4379;59.744;18.206;2023-03-15T15:54:26;2.40;99.90
8684;DHT22;4379;59.744;18.206;2023-03-15T15:56:59;2.40;99.90
8684;DHT22;4379;59.744;18.206;2023-03-15T15:59:27;2.50;99.90
8684;DHT22;4379;59.744;18.206;2023-03-15T16:01:55;2.40;99.90
8684;DHT22;4379;59.744;18.206;2023-03-15T16:04:29;2.50;99.90
8684;DHT22;4379;59.744;18.206;2023-03-15T16:06:58;2.50;99.90
8684;DHT22;4379;59.744;18.206;2023-03-15T16:09:29;2.30;99.90
8684;DHT22;4379;59.744;18.206;2023-03-15T16:11:56;2.20;99.90
8684;DHT22;4379;59.744;18.206;2023-03-15T16:14:24;2.00;99.90
8684;DHT22;4379;59.744;18.206;2023-03-15T16:16:51;2.00;99.90
8684;DHT22;4379;59.744;18.206;2023-03-15T16:19:18;1.90;99.90
8684;DHT22;4379;59.744;18.206;2023-03-15T16:21:48;1.90;99.90
8684;DHT22;4379;59.744;18.206;2023-03-15T16:24:22;2.00;99.90
8684;DHT22;4379;59.744;18.206;2023-03-15T16:26:55;1.90;99.90
8684;DHT22;4379;59.744;18.206;2023-03-15T16:29:36;1.90;99.90
8684;DHT22;4379;59.744;18.206;2023-03-15T16:32:04;1.90;99.90
8684;DHT22;4379;59.744;18.206;2023-03-15T16:34:48;1.80;99.90
8684;DHT22;4379;59.744;18.206;2023-03-15T16:37:19;1.80;99.90
8684;DHT22;4379;59.744;18.206;2023-03-15T16:39:48;1.80;99.90
8684;DHT22;4379;59.744;18.206;2023-03-15T16:42:18;1.80;99.90
8684;DHT22;4379;59.744;18.206;2023-03-15T16:44:46;1.80;99.90
8684;DHT22;4379;59.744;18.206;2023-03-15T16:47:13;1.80;99.90
8684;DHT22;4379;59.744;18.206;2023-03-15T16:49:40;1.50;99.90
8684;DHT22;4379;59.744;18.206;2023-03-15T16:52:08;1.50;99.90
8684;DHT22;4379;59.744;18.206;2023-03-15T16:54:36;1.40;99.90
8684;DHT22;4379;59.744;18.206;2023-03-15T16:57:20;1.40;99.90
8684;DHT22;4379;59.744;18.206;2023-03-15T16:59:48;1.30;99.90
8684;DHT22;4379;59.744;18.206;2023-03-15T17:02:24;1.30;99.90
8684;DHT22;4379;59.744;18.206;2023-03-15T17:04:52;1.10;99.90
8684;DHT22;4379;59.744;18.206;2023-03-15T17:07:33;1.00;99.90
8684;DHT22;4379;59.744;18.206;2023-03-15T17:10:08;0.90;99.90
8684;DHT22;4379;59.744;18.206;2023-03-15T17:12:37;0.90;99.90
8684;DHT22;4379;59.744;18.206;2023-03-15T17:15:05;0.90;99.90
8684;DHT22;4379;59.744;18.206;2023-03-15T17:17:32;0.90;99.90
8684;DHT22;4379;59.744;18.206;2023-03-15T17:20:02;0.90;99.90
8684;DHT22;4379;59.744;18.206;2023-03-15T17:22:37;0.80;99.90
8684;DHT22;4379;59.744;18.206;2023-03-15T17:25:04;0.80;99.90